sensor_id;sensor_type;location;lat;lon;timestamp;P1;durP1;ratioP1;P2;durP2;ratioP2
35128;SDS011;21301;43.626;10.580;2024-01-07T00:01:23;8.57;;;4.90;;
35128;SDS011;21301;43.626;10.580;2024-01-07T00:03:48;9.20;;;4.68;;
35128;SDS011;21301;43.626;10.580;2024-01-07T00:06:14;7.00;;;4.65;;
35128;SDS011;21301;43.626;10.580;2024-01-07T00:08:39;6.80;;;4.00;;
35128;SDS011;21301;43.626;10.580;2024-01-07T00:11:05;9.35;;;4.63;;
35128;SDS011;21301;43.626;10.580;2024-01-07T00:13:30;8.45;;;5.22;;
35128;SDS011;21301;43.626;10.580;2024-01-07T00:15:56;8.38;;;4.75;;
35128;SDS011;21301;43.626;10.580;2024-01-07T00:18:23;8.35;;;5.00;;
35128;SDS011;21301;43.626;10.580;2024-01-07T00:20:50;9.05;;;4.57;;
35128;SDS011;21301;43.626;10.580;2024-01-07T00:23:15;7.25;;;5.03;;
35128;SDS011;21301;43.626;10.580;2024-01-07T00:25:41;7.45;;;5.05;;
35128;SDS011;21301;43.626;10.580;2024-01-07T00:28:06;7.97;;;5.45;;
35128;SDS011;21301;43.626;10.580;2024-01-07T00:30:32;6.18;;;4.85;;
35128;SDS011;21301;43.626;10.580;2024-01-07T00:32:59;7.15;;;4.53;;
35128;SDS011;21301;43.626;10.580;2024-01-07T00:35:26;7.18;;;5.32;;
35128;SDS011;21301;43.626;10.580;2024-01-07T00:37:51;7.07;;;4.97;;
35128;SDS011;21301;43.626;10.580;2024-01-07T00:40:17;6.97;;;4.68;;
35128;SDS011;21301;43.626;10.580;2024-01-07T00:42:43;7.18;;;4.68;;
35128;SDS011;21301;43.626;10.580;2024-01-07T00:45:09;6.32;;;4.35;;
35128;SDS011;21301;43.626;10.580;2024-01-07T00:47:35;8.35;;;5.90;;
35128;SDS011;21301;43.626;10.580;2024-01-07T00:50:00;8.40;;;6.07;;
35128;SDS011;21301;43.626;10.580;2024-01-07T00:52:26;8.35;;;6.20;;
35128;SDS011;21301;43.626;10.580;2024-01-07T00:54:51;7.60;;;5.72;;
35128;SDS011;21301;43.626;10.580;2024-01-07T00:57:17;8.23;;;5.22;;
35128;SDS011;21301;43.626;10.580;2024-01-07T00:59:43;9.55;;;6.32;;
35128;SDS011;21301;43.626;10.580;2024-01-07T01:02:09;7.72;;;4.95;;
35128;SDS011;21301;43.626;10.580;2024-01-07T01:04:37;8.90;;;6.00;;
35128;SDS011;21301;43.626;10.580;2024-01-07T01:07:04;9.85;;;6.68;;
35128;SDS011;21301;43.626;10.580;2024-01-07T01:09:30;8.48;;;5.70;;
35128;SDS011;21301;43.626;10.580;2024-01-07T01:11:56;7.88;;;4.95;;
35128;SDS011;21301;43.626;10.580;2024-01-07T01:14:21;7.53;;;5.18;;
35128;SDS011;21301;43.626;10.580;2024-01-07T01:16:48;9.48;;;6.00;;
35128;SDS011;21301;43.626;10.580;2024-01-07T01:19:14;9.32;;;6.40;;
35128;SDS011;21301;43.626;10.580;2024-01-07T01:21:39;9.32;;;5.43;;
35128;SDS011;21301;43.626;10.580;2024-01-07T01:24:05;9.30;;;6.38;;
35128;SDS011;21301;43.626;10.580;2024-01-07T01:26:33;7.82;;;5.43;;
35128;SDS011;21301;43.626;10.580;2024-01-07T01:28:59;9.57;;;6.13;;
35128;SDS011;21301;43.626;10.580;2024-01-07T01:31:24;8.30;;;5.70;;
35128;SDS011;21301;43.626;10.580;2024-01-07T01:33:50;8.88;;;5.38;;
35128;SDS011;21301;43.626;10.580;2024-01-07T01:36:15;7.32;;;5.28;;
35128;SDS011;21301;43.626;10.580;2024-01-07T01:38:41;10.82;;;5.93;;
35128;SDS011;21301;43.626;10.580;2024-01-07T01:41:06;9.43;;;5.75;;
35128;SDS011;21301;43.626;10.580;2024-01-07T01:43:32;9.38;;;6.38;;
35128;SDS011;21301;43.626;10.580;2024-01-07T01:46:02;10.50;;;6.90;;
35128;SDS011;21301;43.626;10.580;2024-01-07T01:48:27;8.77;;;6.15;;
35128;SDS011;21301;43.626;10.580;2024-01-07T01:50:55;9.05;;;5.93;;
35128;SDS011;21301;43.626;10.580;2024-01-07T01:53:23;8.32;;;6.13;;
35128;SDS011;21301;43.626;10.580;2024-01-07T01:55:54;11.25;;;6.47;;
35128;SDS011;21301;43.626;10.580;2024-01-07T01:58:23;10.43;;;6.65;;
35128;SDS011;21301;43.626;10.580;2024-01-07T02:00:50;9.98;;;6.28;;
35128;SDS011;21301;43.626;10.580;2024-01-07T02:03:16;11.00;;;5.80;;
35128;SDS011;21301;43.626;10.580;2024-01-07T02:05:43;7.82;;;4.97;;
35128;SDS011;21301;43.626;10.580;2024-01-07T02:08:15;8.88;;;5.05;;
35128;SDS011;21301;43.626;10.580;2024-01-07T02:10:47;7.50;;;4.60;;
35128;SDS011;21301;43.626;10.580;2024-01-07T02:13:13;7.70;;;4.90;;
35128;SDS011;21301;43.626;10.580;2024-01-07T02:15:39;8.35;;;5.03;;
35128;SDS011;21301;43.626;10.580;2024-01-07T02:18:16;7.65;;;5.30;;
35128;SDS011;21301;43.626;10.580;2024-01-07T02:20:43;8.20;;;4.82;;
35128;SDS011;21301;43.626;10.580;2024-01-07T02:23:09;7.60;;;4.53;;
35128;SDS011;21301;43.626;10.580;2024-01-07T02:25:36;7.65;;;4.80;;
35128;SDS011;21301;43.626;10.580;2024-01-07T02:28:02;8.02;;;5.13;;
35128;SDS011;21301;43.626;10.580;2024-01-07T02:30:28;6.72;;;4.40;;
35128;SDS011;21301;43.626;10.580;2024-01-07T02:32:54;7.25;;;4.07;;
35128;SDS011;21301;43.626;10.580;2024-01-07T02:35:20;7.68;;;3.53;;
35128;SDS011;21301;43.626;10.580;2024-01-07T02:37:45;7.22;;;3.22;;
35128;SDS011;21301;43.626;10.580;2024-01-07T02:40:11;5.05;;;2.30;;
35128;SDS011;21301;43.626;10.580;2024-01-07T02:42:37;4.15;;;2.08;;
35128;SDS011;21301;43.626;10.580;2024-01-07T02:45:02;6.93;;;2.70;;
35128;SDS011;21301;43.626;10.580;2024-01-07T02:47:28;4.53;;;2.30;;
35128;SDS011;21301;43.626;10.580;2024-01-07T02:49:54;4.82;;;2.03;;
35128;SDS011;21301;43.626;10.580;2024-01-07T02:52:20;4.80;;;2.35;;
35128;SDS011;21301;43.626;10.580;2024-01-07T02:54:46;4.05;;;1.67;;
35128;SDS011;21301;43.626;10.580;2024-01-07T02:57:11;4.25;;;1.80;;
35128;SDS011;21301;43.626;10.580;2024-01-07T02:59:38;4.47;;;1.92;;
35128;SDS011;21301;43.626;10.580;2024-01-07T03:02:03;3.88;;;1.85;;
35128;SDS011;21301;43.626;10.580;2024-01-07T03:04:32;4.13;;;1.95;;
35128;SDS011;21301;43.626;10.580;2024-01-07T03:06:58;5.18;;;2.50;;
35128;SDS011;21301;43.626;10.580;2024-01-07T03:09:24;5.88;;;2.75;;
35128;SDS011;21301;43.626;10.580;2024-01-07T03:11:50;4.60;;;2.42;;
35128;SDS011;21301;43.626;10.580;2024-01-07T03:14:15;6.88;;;3.10;;
35128;SDS011;21301;43.626;10.580;2024-01-07T03:16:45;6.32;;;3.35;;
35128;SDS011;21301;43.626;10.580;2024-01-07T03:19:11;6.22;;;3.60;;
35128;SDS011;21301;43.626;10.580;2024-01-07T03:21:39;5.85;;;3.58;;
35128;SDS011;21301;43.626;10.580;2024-01-07T03:24:05;5.70;;;3.17;;
35128;SDS011;21301;43.626;10.580;2024-01-07T03:26:30;5.57;;;3.22;;
35128;SDS011;21301;43.626;10.580;2024-01-07T03:28:58;6.97;;;3.25;;
35128;SDS011;21301;43.626;10.580;2024-01-07T03:31:27;4.93;;;2.80;;
35128;SDS011;21301;43.626;10.580;2024-01-07T03:33:53;6.43;;;1.98;;
35128;SDS011;21301;43.626;10.580;2024-01-07T03:36:19;6.13;;;2.70;;
35128;SDS011;21301;43.626;10.580;2024-01-07T03:38:46;5.53;;;2.42;;
35128;SDS011;21301;43.626;10.580;2024-01-07T03:41:17;5.72;;;2.53;;
35128;SDS011;21301;43.626;10.580;2024-01-07T03:43:45;4.55;;;2.33;;
35128;SDS011;21301;43.626;10.580;2024-01-07T03:46:11;5.18;;;1.98;;
35128;SDS011;21301;43.626;10.580;2024-01-07T03:48:36;3.72;;;1.70;;
35128;SDS011;21301;43.626;10.580;2024-01-07T03:51:03;5.68;;;1.90;;
35128;SDS011;21301;43.626;10.580;2024-01-07T03:53:30;3.38;;;1.70;;
35128;SDS011;21301;43.626;10.580;2024-01-07T03:55:57;7.65;;;2.03;;
35128;SDS011;21301;43.626;10.580;2024-01-07T03:58:23;5.72;;;1.70;;
35128;SDS011;21301;43.626;10.580;2024-01-07T04:00:48;3.25;;;1.13;;
35128;SDS011;21301;43.626;10.580;2024-01-07T04:03:14;3.63;;;1.60;;
35128;SDS011;21301;43.626;10.580;2024-01-07T04:05:39;4.13;;;1.63;;
35128;SDS011;21301;43.626;10.580;2024-01-07T04:08:05;4.10;;;1.15;;
35128;SDS011;21301;43.626;10.580;2024-01-07T04:10:31;2.92;;;1.13;;
35128;SDS011;21301;43.626;10.580;2024-01-07T04:12:57;5.30;;;1.80;;
35128;SDS011;21301;43.626;10.580;2024-01-07T04:15:22;2.30;;;0.75;;
35128;SDS011;21301;43.626;10.580;2024-01-07T04:17:48;3.00;;;0.85;;
35128;SDS011;21301;43.626;10.580;2024-01-07T04:20:14;2.03;;;0.70;;
35128;SDS011;21301;43.626;10.580;2024-01-07T04:22:39;2.85;;;0.90;;
35128;SDS011;21301;43.626;10.580;2024-01-07T04:25:05;2.13;;;0.73;;
35128;SDS011;21301;43.626;10.580;2024-01-07T04:27:34;2.70;;;0.70;;
35128;SDS011;21301;43.626;10.580;2024-01-07T04:30:00;1.92;;;0.70;;
35128;SDS011;21301;43.626;10.580;2024-01-07T04:32:26;2.50;;;0.70;;
35128;SDS011;21301;43.626;10.580;2024-01-07T04:34:52;1.85;;;0.70;;
35128;SDS011;21301;43.626;10.580;2024-01-07T04:37:17;2.08;;;0.68;;
35128;SDS011;21301;43.626;10.580;2024-01-07T04:39:43;1.17;;;0.40;;
35128;SDS011;21301;43.626;10.580;2024-01-07T04:42:08;1.40;;;0.47;;
35128;SDS011;21301;43.626;10.580;2024-01-07T04:44:35;3.20;;;0.80;;
35128;SDS011;21301;43.626;10.580;2024-01-07T04:47:00;3.22;;;0.65;;
35128;SDS011;21301;43.626;10.580;2024-01-07T04:49:26;2.22;;;0.82;;
35128;SDS011;21301;43.626;10.580;2024-01-07T04:51:52;1.90;;;0.68;;
35128;SDS011;21301;43.626;10.580;2024-01-07T04:54:18;3.65;;;0.82;;
35128;SDS011;21301;43.626;10.580;2024-01-07T04:56:44;2.65;;;1.10;;
35128;SDS011;21301;43.626;10.580;2024-01-07T04:59:09;3.00;;;1.05;;
35128;SDS011;21301;43.626;10.580;2024-01-07T05:01:36;2.90;;;1.05;;
35128;SDS011;21301;43.626;10.580;2024-01-07T05:04:02;4.30;;;0.93;;
35128;SDS011;21301;43.626;10.580;2024-01-07T05:06:28;2.80;;;0.73;;
35128;SDS011;21301;43.626;10.580;2024-01-07T05:08:55;5.07;;;1.10;;
35128;SDS011;21301;43.626;10.580;2024-01-07T05:11:20;4.00;;;1.08;;
35128;SDS011;21301;43.626;10.580;2024-01-07T05:13:46;2.47;;;0.80;;
35128;SDS011;21301;43.626;10.580;2024-01-07T05:16:21;2.22;;;1.00;;
35128;SDS011;21301;43.626;10.580;2024-01-07T05:18:46;3.35;;;1.20;;
35128;SDS011;21301;43.626;10.580;2024-01-07T05:21:14;2.33;;;0.90;;
35128;SDS011;21301;43.626;10.580;2024-01-07T05:23:41;2.30;;;0.80;;
35128;SDS011;21301;43.626;10.580;2024-01-07T05:26:08;2.95;;;1.20;;
35128;SDS011;21301;43.626;10.580;2024-01-07T05:28:34;3.75;;;1.02;;
35128;SDS011;21301;43.626;10.580;2024-01-07T05:30:59;3.75;;;1.25;;
35128;SDS011;21301;43.626;10.580;2024-01-07T05:33:25;3.50;;;0.80;;
35128;SDS011;21301;43.626;10.580;2024-01-07T05:35:50;2.30;;;0.95;;
35128;SDS011;21301;43.626;10.580;2024-01-07T05:38:16;2.10;;;0.80;;
35128;SDS011;21301;43.626;10.580;2024-01-07T05:40:41;1.60;;;0.77;;
35128;SDS011;21301;43.626;10.580;2024-01-07T05:43:07;1.30;;;0.60;;
35128;SDS011;21301;43.626;10.580;2024-01-07T05:45:32;2.35;;;0.93;;
35128;SDS011;21301;43.626;10.580;2024-01-07T05:47:58;2.67;;;1.08;;
35128;SDS011;21301;43.626;10.580;2024-01-07T05:50:23;5.43;;;1.23;;
35128;SDS011;21301;43.626;10.580;2024-01-07T05:52:49;3.90;;;0.85;;
35128;SDS011;21301;43.626;10.580;2024-01-07T05:55:18;2.15;;;0.73;;
35128;SDS011;21301;43.626;10.580;2024-01-07T05:57:44;1.60;;;0.50;;
35128;SDS011;21301;43.626;10.580;2024-01-07T06:00:10;2.45;;;0.70;;
35128;SDS011;21301;43.626;10.580;2024-01-07T06:02:38;1.85;;;0.70;;
35128;SDS011;21301;43.626;10.580;2024-01-07T06:05:05;2.28;;;0.73;;
35128;SDS011;21301;43.626;10.580;2024-01-07T06:07:31;1.20;;;0.40;;
35128;SDS011;21301;43.626;10.580;2024-01-07T06:09:56;1.23;;;0.47;;
35128;SDS011;21301;43.626;10.580;2024-01-07T06:12:23;1.17;;;0.60;;
35128;SDS011;21301;43.626;10.580;2024-01-07T06:14:51;1.67;;;0.60;;
35128;SDS011;21301;43.626;10.580;2024-01-07T06:17:16;1.52;;;0.57;;
35128;SDS011;21301;43.626;10.580;2024-01-07T06:19:42;2.22;;;0.80;;
35128;SDS011;21301;43.626;10.580;2024-01-07T06:22:07;1.85;;;0.57;;
35128;SDS011;21301;43.626;10.580;2024-01-07T06:24:33;1.20;;;0.60;;
35128;SDS011;21301;43.626;10.580;2024-01-07T06:26:58;1.38;;;0.50;;
35128;SDS011;21301;43.626;10.580;2024-01-07T06:29:24;2.08;;;0.80;;
35128;SDS011;21301;43.626;10.580;2024-01-07T06:31:52;1.50;;;0.60;;
35128;SDS011;21301;43.626;10.580;2024-01-07T06:34:18;1.52;;;0.65;;
35128;SDS011;21301;43.626;10.580;2024-01-07T06:36:43;1.90;;;0.63;;
35128;SDS011;21301;43.626;10.580;2024-01-07T06:39:09;1.88;;;0.50;;
35128;SDS011;21301;43.626;10.580;2024-01-07T06:41:35;1.23;;;0.45;;
35128;SDS011;21301;43.626;10.580;2024-01-07T06:44:02;1.00;;;0.50;;
35128;SDS011;21301;43.626;10.580;2024-01-07T06:46:28;0.95;;;0.47;;
35128;SDS011;21301;43.626;10.580;2024-01-07T06:48:53;1.13;;;0.52;;
35128;SDS011;21301;43.626;10.580;2024-01-07T06:51:19;1.27;;;0.40;;
35128;SDS011;21301;43.626;10.580;2024-01-07T06:53:44;1.30;;;0.50;;
35128;SDS011;21301;43.626;10.580;2024-01-07T06:56:12;1.42;;;0.47;;
35128;SDS011;21301;43.626;10.580;2024-01-07T06:58:39;1.33;;;0.43;;
35128;SDS011;21301;43.626;10.580;2024-01-07T07:01:08;1.23;;;0.47;;
35128;SDS011;21301;43.626;10.580;2024-01-07T07:03:35;0.65;;;0.30;;
35128;SDS011;21301;43.626;10.580;2024-01-07T07:06:00;1.15;;;0.40;;
35128;SDS011;21301;43.626;10.580;2024-01-07T07:08:26;1.52;;;0.50;;
35128;SDS011;21301;43.626;10.580;2024-01-07T07:10:52;1.77;;;0.40;;
35128;SDS011;21301;43.626;10.580;2024-01-07T07:13:17;0.68;;;0.30;;
35128;SDS011;21301;43.626;10.580;2024-01-07T07:15:43;1.52;;;0.50;;
35128;SDS011;21301;43.626;10.580;2024-01-07T07:18:08;2.85;;;0.60;;
35128;SDS011;21301;43.626;10.580;2024-01-07T07:20:34;1.25;;;0.38;;
35128;SDS011;21301;43.626;10.580;2024-01-07T07:22:59;0.73;;;0.30;;
35128;SDS011;21301;43.626;10.580;2024-01-07T07:25:25;1.10;;;0.40;;
35128;SDS011;21301;43.626;10.580;2024-01-07T07:27:52;1.42;;;0.63;;
35128;SDS011;21301;43.626;10.580;2024-01-07T07:30:17;1.27;;;0.30;;
35128;SDS011;21301;43.626;10.580;2024-01-07T07:32:43;1.27;;;0.50;;
35128;SDS011;21301;43.626;10.580;2024-01-07T07:35:09;1.23;;;0.50;;
35128;SDS011;21301;43.626;10.580;2024-01-07T07:37:35;1.75;;;0.50;;
35128;SDS011;21301;43.626;10.580;2024-01-07T07:40:01;1.17;;;0.45;;
35128;SDS011;21301;43.626;10.580;2024-01-07T07:42:28;0.93;;;0.40;;
35128;SDS011;21301;43.626;10.580;2024-01-07T07:44:53;1.40;;;0.50;;
35128;SDS011;21301;43.626;10.580;2024-01-07T07:47:20;0.82;;;0.30;;
35128;SDS011;21301;43.626;10.580;2024-01-07T07:49:46;1.67;;;0.28;;
35128;SDS011;21301;43.626;10.580;2024-01-07T07:52:11;0.85;;;0.47;;
35128;SDS011;21301;43.626;10.580;2024-01-07T07:54:39;4.75;;;0.30;;
35128;SDS011;21301;43.626;10.580;2024-01-07T07:57:05;1.02;;;0.30;;
35128;SDS011;21301;43.626;10.580;2024-01-07T07:59:30;0.98;;;0.30;;
35128;SDS011;21301;43.626;10.580;2024-01-07T08:01:56;0.40;;;0.30;;
35128;SDS011;21301;43.626;10.580;2024-01-07T08:04:24;9.15;;;3.78;;
35128;SDS011;21301;43.626;10.580;2024-01-07T08:06:51;0.93;;;0.30;;
35128;SDS011;21301;43.626;10.580;2024-01-07T08:09:17;0.63;;;0.22;;
35128;SDS011;21301;43.626;10.580;2024-01-07T08:11:43;0.43;;;0.30;;
35128;SDS011;21301;43.626;10.580;2024-01-07T08:14:09;1.02;;;0.30;;
35128;SDS011;21301;43.626;10.580;2024-01-07T08:16:35;2.35;;;0.30;;
35128;SDS011;21301;43.626;10.580;2024-01-07T08:19:00;1.77;;;0.45;;
35128;SDS011;21301;43.626;10.580;2024-01-07T08:21:26;1.17;;;0.40;;
35128;SDS011;21301;43.626;10.580;2024-01-07T08:23:53;0.70;;;0.28;;
35128;SDS011;21301;43.626;10.580;2024-01-07T08:26:19;1.80;;;0.60;;
35128;SDS011;21301;43.626;10.580;2024-01-07T08:28:45;1.25;;;0.45;;
35128;SDS011;21301;43.626;10.580;2024-01-07T08:31:10;1.45;;;0.60;;
35128;SDS011;21301;43.626;10.580;2024-01-07T08:33:36;2.38;;;0.60;;
35128;SDS011;21301;43.626;10.580;2024-01-07T08:36:02;1.58;;;0.70;;
35128;SDS011;21301;43.626;10.580;2024-01-07T08:38:28;2.28;;;0.85;;
35128;SDS011;21301;43.626;10.580;2024-01-07T08:40:54;1.70;;;0.50;;
35128;SDS011;21301;43.626;10.580;2024-01-07T08:43:20;3.05;;;0.68;;
35128;SDS011;21301;43.626;10.580;2024-01-07T08:45:46;3.53;;;1.42;;
35128;SDS011;21301;43.626;10.580;2024-01-07T08:48:11;3.15;;;1.10;;
35128;SDS011;21301;43.626;10.580;2024-01-07T08:50:40;2.38;;;0.93;;
35128;SDS011;21301;43.626;10.580;2024-01-07T08:53:07;1.15;;;0.47;;
35128;SDS011;21301;43.626;10.580;2024-01-07T08:55:34;1.38;;;0.40;;
35128;SDS011;21301;43.626;10.580;2024-01-07T08:57:59;1.92;;;0.60;;
35128;SDS011;21301;43.626;10.580;2024-01-07T09:00:26;1.20;;;0.40;;
35128;SDS011;21301;43.626;10.580;2024-01-07T09:02:57;1.77;;;0.60;;
35128;SDS011;21301;43.626;10.580;2024-01-07T09:05:23;1.38;;;0.50;;
35128;SDS011;21301;43.626;10.580;2024-01-07T09:07:49;2.65;;;0.40;;
35128;SDS011;21301;43.626;10.580;2024-01-07T09:10:15;0.47;;;0.30;;
35128;SDS011;21301;43.626;10.580;2024-01-07T09:12:41;0.95;;;0.35;;
35128;SDS011;21301;43.626;10.580;2024-01-07T09:15:07;7.30;;;1.80;;
35128;SDS011;21301;43.626;10.580;2024-01-07T09:17:37;6.40;;;1.00;;
35128;SDS011;21301;43.626;10.580;2024-01-07T09:20:03;5.28;;;1.92;;
35128;SDS011;21301;43.626;10.580;2024-01-07T09:22:33;1.75;;;0.70;;
35128;SDS011;21301;43.626;10.580;2024-01-07T09:25:01;1.58;;;0.55;;
35128;SDS011;21301;43.626;10.580;2024-01-07T09:27:30;1.75;;;0.52;;
35128;SDS011;21301;43.626;10.580;2024-01-07T09:29:56;1.63;;;0.50;;
35128;SDS011;21301;43.626;10.580;2024-01-07T09:32:22;3.95;;;1.02;;
35128;SDS011;21301;43.626;10.580;2024-01-07T09:34:47;4.97;;;1.00;;
35128;SDS011;21301;43.626;10.580;2024-01-07T09:37:13;7.63;;;0.70;;
35128;SDS011;21301;43.626;10.580;2024-01-07T09:39:42;4.43;;;0.82;;
35128;SDS011;21301;43.626;10.580;2024-01-07T09:42:12;1.65;;;0.50;;
35128;SDS011;21301;43.626;10.580;2024-01-07T09:44:40;7.97;;;0.85;;
35128;SDS011;21301;43.626;10.580;2024-01-07T09:47:09;2.05;;;0.80;;
35128;SDS011;21301;43.626;10.580;2024-01-07T09:49:36;8.63;;;1.58;;
35128;SDS011;21301;43.626;10.580;2024-01-07T09:52:03;14.82;;;1.30;;
35128;SDS011;21301;43.626;10.580;2024-01-07T09:54:30;2.95;;;1.20;;
35128;SDS011;21301;43.626;10.580;2024-01-07T09:57:03;2.75;;;1.20;;
35128;SDS011;21301;43.626;10.580;2024-01-07T09:59:33;2.65;;;0.75;;
35128;SDS011;21301;43.626;10.580;2024-01-07T10:01:59;1.95;;;0.50;;
35128;SDS011;21301;43.626;10.580;2024-01-07T10:04:26;1.45;;;0.50;;
35128;SDS011;21301;43.626;10.580;2024-01-07T10:06:58;4.80;;;1.23;;
35128;SDS011;21301;43.626;10.580;2024-01-07T10:09:24;3.25;;;1.15;;
35128;SDS011;21301;43.626;10.580;2024-01-07T10:11:55;1.45;;;0.50;;
35128;SDS011;21301;43.626;10.580;2024-01-07T10:14:21;1.92;;;0.80;;
35128;SDS011;21301;43.626;10.580;2024-01-07T10:16:50;2.58;;;0.90;;
35128;SDS011;21301;43.626;10.580;2024-01-07T10:19:22;1.58;;;0.63;;
35128;SDS011;21301;43.626;10.580;2024-01-07T10:22:02;2.22;;;0.70;;
35128;SDS011;21301;43.626;10.580;2024-01-07T10:24:39;3.75;;;0.85;;
35128;SDS011;21301;43.626;10.580;2024-01-07T10:27:06;3.78;;;0.60;;
35128;SDS011;21301;43.626;10.580;2024-01-07T10:29:32;1.23;;;0.50;;
35128;SDS011;21301;43.626;10.580;2024-01-07T10:31:59;2.03;;;0.70;;
35128;SDS011;21301;43.626;10.580;2024-01-07T10:34:32;3.70;;;1.25;;
35128;SDS011;21301;43.626;10.580;2024-01-07T10:37:00;6.22;;;1.42;;
35128;SDS011;21301;43.626;10.580;2024-01-07T10:39:28;2.85;;;0.82;;
35128;SDS011;21301;43.626;10.580;2024-01-07T10:41:54;4.18;;;1.52;;
35128;SDS011;21301;43.626;10.580;2024-01-07T10:44:25;3.90;;;1.42;;
35128;SDS011;21301;43.626;10.580;2024-01-07T10:46:53;2.88;;;1.30;;
35128;SDS011;21301;43.626;10.580;2024-01-07T10:49:23;3.30;;;1.42;;
35128;SDS011;21301;43.626;10.580;2024-01-07T10:54:30;3.80;;;1.70;;
35128;SDS011;21301;43.626;10.580;2024-01-07T10:57:07;4.68;;;1.90;;
35128;SDS011;21301;43.626;10.580;2024-01-07T10:59:44;5.22;;;1.65;;
35128;SDS011;21301;43.626;10.580;2024-01-07T11:02:16;5.32;;;1.88;;
35128;SDS011;21301;43.626;10.580;2024-01-07T11:04:56;4.18;;;1.92;;
35128;SDS011;21301;43.626;10.580;2024-01-07T11:07:52;4.95;;;2.40;;
35128;SDS011;21301;43.626;10.580;2024-01-07T11:10:43;4.78;;;2.10;;
35128;SDS011;21301;43.626;10.580;2024-01-07T11:13:31;6.68;;;2.40;;
35128;SDS011;21301;43.626;10.580;2024-01-07T11:16:01;4.65;;;2.53;;
35128;SDS011;21301;43.626;10.580;2024-01-07T11:18:27;6.15;;;3.17;;
35128;SDS011;21301;43.626;10.580;2024-01-07T11:21:02;5.10;;;2.75;;
35128;SDS011;21301;43.626;10.580;2024-01-07T11:23:35;5.47;;;2.25;;
35128;SDS011;21301;43.626;10.580;2024-01-07T11:26:04;4.75;;;2.35;;
35128;SDS011;21301;43.626;10.580;2024-01-07T11:31:10;4.60;;;2.50;;
35128;SDS011;21301;43.626;10.580;2024-01-07T11:33:37;3.60;;;1.52;;
35128;SDS011;21301;43.626;10.580;2024-01-07T11:36:03;3.70;;;1.30;;
35128;SDS011;21301;43.626;10.580;2024-01-07T11:38:33;3.22;;;1.45;;
35128;SDS011;21301;43.626;10.580;2024-01-07T11:41:04;3.60;;;1.30;;
35128;SDS011;21301;43.626;10.580;2024-01-07T11:43:31;1.77;;;0.60;;
35128;SDS011;21301;43.626;10.580;2024-01-07T11:45:57;1.27;;;0.43;;
35128;SDS011;21301;43.626;10.580;2024-01-07T11:48:23;1.20;;;0.40;;
35128;SDS011;21301;43.626;10.580;2024-01-07T11:50:48;2.35;;;0.85;;
35128;SDS011;21301;43.626;10.580;2024-01-07T11:53:15;3.75;;;1.00;;
35128;SDS011;21301;43.626;10.580;2024-01-07T11:55:41;4.07;;;1.67;;
35128;SDS011;21301;43.626;10.580;2024-01-07T11:58:07;3.67;;;1.33;;
35128;SDS011;21301;43.626;10.580;2024-01-07T12:00:33;4.05;;;1.52;;
35128;SDS011;21301;43.626;10.580;2024-01-07T12:03:02;4.35;;;1.75;;
35128;SDS011;21301;43.626;10.580;2024-01-07T12:05:30;3.90;;;1.45;;
35128;SDS011;21301;43.626;10.580;2024-01-07T12:08:00;4.30;;;1.45;;
35128;SDS011;21301;43.626;10.580;2024-01-07T12:10:25;3.45;;;1.33;;
35128;SDS011;21301;43.626;10.580;2024-01-07T12:12:51;5.35;;;2.70;;
35128;SDS011;21301;43.626;10.580;2024-01-07T12:15:20;7.18;;;3.63;;
35128;SDS011;21301;43.626;10.580;2024-01-07T12:18:00;13.30;;;2.85;;
35128;SDS011;21301;43.626;10.580;2024-01-07T12:20:31;5.57;;;2.38;;
35128;SDS011;21301;43.626;10.580;2024-01-07T12:23:06;6.50;;;2.88;;
35128;SDS011;21301;43.626;10.580;2024-01-07T12:25:35;4.78;;;2.33;;
35128;SDS011;21301;43.626;10.580;2024-01-07T12:28:02;3.35;;;1.17;;
35128;SDS011;21301;43.626;10.580;2024-01-07T12:30:40;4.22;;;1.75;;
35128;SDS011;21301;43.626;10.580;2024-01-07T12:33:08;3.00;;;1.00;;
35128;SDS011;21301;43.626;10.580;2024-01-07T12:35:37;10.88;;;3.88;;
35128;SDS011;21301;43.626;10.580;2024-01-07T12:38:12;6.40;;;2.97;;
35128;SDS011;21301;43.626;10.580;2024-01-07T12:40:43;5.40;;;2.03;;
35128;SDS011;21301;43.626;10.580;2024-01-07T12:43:10;3.58;;;1.90;;
35128;SDS011;21301;43.626;10.580;2024-01-07T12:45:36;3.72;;;1.25;;
35128;SDS011;21301;43.626;10.580;2024-01-07T12:48:02;4.28;;;1.52;;
35128;SDS011;21301;43.626;10.580;2024-01-07T12:50:28;3.42;;;1.48;;
35128;SDS011;21301;43.626;10.580;2024-01-07T12:52:56;5.97;;;2.65;;
35128;SDS011;21301;43.626;10.580;2024-01-07T12:55:26;6.15;;;3.38;;
35128;SDS011;21301;43.626;10.580;2024-01-07T12:57:53;4.25;;;1.42;;
35128;SDS011;21301;43.626;10.580;2024-01-07T13:00:24;4.05;;;1.95;;
35128;SDS011;21301;43.626;10.580;2024-01-07T13:03:10;4.50;;;1.85;;
35128;SDS011;21301;43.626;10.580;2024-01-07T13:05:42;3.70;;;1.42;;
35128;SDS011;21301;43.626;10.580;2024-01-07T13:08:15;12.17;;;5.33;;
35128;SDS011;21301;43.626;10.580;2024-01-07T13:10:45;7.25;;;3.53;;
35128;SDS011;21301;43.626;10.580;2024-01-07T13:13:16;19.02;;;9.35;;
35128;SDS011;21301;43.626;10.580;2024-01-07T13:15:43;11.20;;;5.13;;
35128;SDS011;21301;43.626;10.580;2024-01-07T13:18:10;5.55;;;3.25;;
35128;SDS011;21301;43.626;10.580;2024-01-07T13:20:37;4.55;;;2.03;;
35128;SDS011;21301;43.626;10.580;2024-01-07T13:23:11;4.95;;;2.50;;
35128;SDS011;21301;43.626;10.580;2024-01-07T13:25:42;4.30;;;1.98;;
35128;SDS011;21301;43.626;10.580;2024-01-07T13:28:11;4.25;;;1.85;;
35128;SDS011;21301;43.626;10.580;2024-01-07T13:30:40;9.02;;;2.85;;
35128;SDS011;21301;43.626;10.580;2024-01-07T13:33:12;4.10;;;2.07;;
35128;SDS011;21301;43.626;10.580;2024-01-07T13:35:40;4.63;;;1.75;;
35128;SDS011;21301;43.626;10.580;2024-01-07T13:38:11;4.35;;;1.80;;
35128;SDS011;21301;43.626;10.580;2024-01-07T13:40:43;6.95;;;2.80;;
35128;SDS011;21301;43.626;10.580;2024-01-07T13:43:13;4.55;;;2.55;;
35128;SDS011;21301;43.626;10.580;2024-01-07T13:45:43;5.32;;;2.40;;
35128;SDS011;21301;43.626;10.580;2024-01-07T13:48:13;4.72;;;2.05;;
35128;SDS011;21301;43.626;10.580;2024-01-07T13:50:40;5.88;;;2.58;;
35128;SDS011;21301;43.626;10.580;2024-01-07T13:53:10;4.78;;;2.63;;
35128;SDS011;21301;43.626;10.580;2024-01-07T13:55:42;5.50;;;2.30;;
35128;SDS011;21301;43.626;10.580;2024-01-07T13:58:09;5.25;;;2.65;;
35128;SDS011;21301;43.626;10.580;2024-01-07T14:00:35;4.40;;;1.95;;
35128;SDS011;21301;43.626;10.580;2024-01-07T14:03:01;4.53;;;2.38;;
35128;SDS011;21301;43.626;10.580;2024-01-07T14:05:27;5.35;;;2.67;;
35128;SDS011;21301;43.626;10.580;2024-01-07T14:07:54;5.80;;;2.72;;
35128;SDS011;21301;43.626;10.580;2024-01-07T14:10:21;11.27;;;4.80;;
35128;SDS011;21301;43.626;10.580;2024-01-07T14:12:47;12.73;;;5.13;;
35128;SDS011;21301;43.626;10.580;2024-01-07T14:15:13;8.13;;;3.58;;
35128;SDS011;21301;43.626;10.580;2024-01-07T14:17:39;5.88;;;2.05;;
35128;SDS011;21301;43.626;10.580;2024-01-07T14:20:08;7.60;;;2.47;;
35128;SDS011;21301;43.626;10.580;2024-01-07T14:22:35;7.93;;;2.75;;
35128;SDS011;21301;43.626;10.580;2024-01-07T14:25:02;4.80;;;1.95;;
35128;SDS011;21301;43.626;10.580;2024-01-07T14:27:28;4.35;;;1.92;;
35128;SDS011;21301;43.626;10.580;2024-01-07T14:29:54;6.32;;;2.05;;
35128;SDS011;21301;43.626;10.580;2024-01-07T14:32:21;4.38;;;2.22;;
35128;SDS011;21301;43.626;10.580;2024-01-07T14:34:47;4.65;;;1.60;;
35128;SDS011;21301;43.626;10.580;2024-01-07T14:37:14;5.43;;;2.55;;
35128;SDS011;21301;43.626;10.580;2024-01-07T14:39:42;8.60;;;2.70;;